West Augusta, Virginia
Current Conditions -  °F | °C
As of 4:35 PM on Saturday 22 Nov 2014 (Local Time) from KVBW Reporting Station
Clear Clear  
Wind Chill: 50°   Ceiling: Unl
Heat Index: 50°   Visibility: 10mi
Dew Point: 20°   Wind: 6mph
Humidity: 31%   Direction: 200°SSW
Pressure: 30.26"   Gusts: NA
Location:  38.27°N, 79.32°W
Report Text: KVBW 222135Z AUTO 20005KT 10SM CLR 10/M07 A3026 RMK AO2 T01011066
Loading
Personal Weather Stations






























Interactive Weather Map New forecast layout! Learn more

10-Day Weather Forecast

Advertisements
Track Severe Weather on mobile